Terminal Aerodrome Forecast
Issued by NWS

Home | Current Version | Previous Version | Text Only | Print | Product List | Glossary On
Versions: 1 2 3 4 5 6 7 8 9 10 11 12 13 14 15 16 17 18 19 20 21 22 23 24 25 26 27 28 29 30 31 32 33 34 35 36 37
000
FTUS43 KGRB 242300
TAFRHI
TAF
KRHI 242333Z 2500/2524 15009KT P6SM BKN022
     FM250400 14006KT 6SM BR SCT025
     FM250600 17003KT 5SM BR SCT020 BKN040
      TEMPO 2507/2511 2SM TSRA OVC015CB
     FM251400 22005KT P6SM BKN030
     FM251800 24009G17KT P6SM SCT035 BKN080=

USA.gov is the U.S. government's official web portal to all federal, state and local government web resources and services.